Time,TemperatureF,DewpointF,PressureIn,WindDirection,WindDirectionDegrees,WindSpeedMPH,WindSpeedGustMPH,Humidity,HourlyPrecipIn,Conditions,Clouds,dailyrainin,SolarRadiationWatts/m^2,SoftwareType,DateUTC
2013-02-25 00:11:00,51.0,2.0,-100.00,East,96,13.0,15.0,13,0.00,,,0.00,0.000000,,2013-02-25 08:11:00,
2013-02-25 00:21:00,51.0,2.0,-100.00,East,96,13.0,15.0,13,0.00,,,0.00,0.000000,,2013-02-25 08:21:00,
2013-02-25 00:31:00,51.0,2.0,-100.00,East,96,13.0,15.0,13,0.00,,,0.00,0.000000,,2013-02-25 08:31:00,
2013-02-25 01:12:00,51.0,0.0,-100.00,East,85,11.0,15.0,12,0.00,,,0.00,0.000000,,2013-02-25 09:12:00,
2013-02-25 01:21:00,51.0,0.0,-100.00,East,85,11.0,15.0,12,0.00,,,0.00,0.000000,,2013-02-25 09:21:00,
2013-02-25 01:31:00,51.0,0.0,-100.00,East,85,11.0,15.0,12,0.00,,,0.00,0.000000,,2013-02-25 09:31:00,
2013-02-25 02:11:00,50.0,1.0,-100.00,East,88,15.0,18.0,13,-99.99,,,0.00,0.000000,,2013-02-25 10:11:00,
2013-02-25 02:41:00,50.0,1.0,-100.00,East,88,15.0,18.0,13,-99.99,,,0.00,0.000000,,2013-02-25 10:41:00,
2013-02-25 03:11:00,50.0,1.0,-100.00,East,90,15.0,20.0,13,-99.99,,,0.00,0.000000,,2013-02-25 11:11:00,
2013-02-25 03:21:00,50.0,1.0,-100.00,East,90,15.0,20.0,13,-99.99,,,0.00,0.000000,,2013-02-25 11:21:00,
2013-02-25 04:11:00,49.0,2.0,-100.00,East,86,13.0,18.0,14,-99.99,,,0.00,0.000000,,2013-02-25 12:11:00,
2013-02-25 05:12:00,48.0,1.0,-100.00,East,87,15.0,21.0,14,-99.99,,,0.00,0.000000,,2013-02-25 13:12:00,
2013-02-25 05:22:00,48.0,1.0,-100.00,East,87,15.0,21.0,14,-99.99,,,0.00,0.000000,,2013-02-25 13:22:00,
2013-02-25 06:16:00,48.0,1.0,-100.00,East,81,20.0,22.0,14,-99.99,,,-99.99,0.000000,,2013-02-25 14:16:00,
2013-02-25 06:21:00,48.0,1.0,-100.00,East,81,20.0,22.0,14,-99.99,,,-99.99,0.000000,,2013-02-25 14:21:00,
2013-02-25 06:31:00,48.0,1.0,-100.00,East,81,20.0,22.0,14,-99.99,,,-99.99,0.000000,,2013-02-25 14:31:00,
2013-02-25 07:11:00,45.0,2.0,-100.00,East,86,15.0,20.0,16,-99.99,,,0.00,4.000000,,2013-02-25 15:11:00,
2013-02-25 07:21:00,45.0,2.0,-100.00,East,86,15.0,20.0,16,-99.99,,,0.00,4.000000,,2013-02-25 15:21:00,
2013-02-25 07:32:00,45.0,2.0,-100.00,East,86,15.0,20.0,16,-99.99,,,0.00,4.000000,,2013-02-25 15:32:00,
2013-02-25 08:11:00,47.0,3.0,-100.00,East,92,16.0,20.0,16,0.00,,,0.00,133.000000,,2013-02-25 16:11:00,
2013-02-25 08:21:00,47.0,3.0,-100.00,East,92,16.0,20.0,16,0.00,,,0.00,133.000000,,2013-02-25 16:21:00,
2013-02-25 09:11:00,50.0,4.0,-100.00,East,81,13.0,20.0,15,0.00,,,0.00,344.000000,,2013-02-25 17:11:00,
2013-02-25 09:21:00,50.0,4.0,-100.00,East,81,13.0,20.0,15,0.00,,,0.00,344.000000,,2013-02-25 17:21:00,
2013-02-25 09:31:00,50.0,4.0,-100.00,East,81,13.0,20.0,15,0.00,,,0.00,344.000000,,2013-02-25 17:31:00,
2013-02-25 10:12:00,55.0,10.0,-100.00,ENE,75,8.0,14.0,16,0.00,,,0.00,530.000000,,2013-02-25 18:12:00,
2013-02-25 10:21:00,55.0,10.0,-100.00,ENE,75,8.0,14.0,16,0.00,,,0.00,530.000000,,2013-02-25 18:21:00,
2013-02-25 10:32:00,55.0,10.0,-100.00,ENE,75,8.0,14.0,16,0.00,,,0.00,530.000000,,2013-02-25 18:32:00,
2013-02-25 10:41:00,55.0,10.0,-100.00,ENE,75,8.0,14.0,16,0.00,,,0.00,530.000000,,2013-02-25 18:41:00,
2013-02-25 11:11:00,60.0,11.0,-100.00,WNW,295,3.0,12.0,14,0.00,,,0.00,668.000000,,2013-02-25 19:11:00,
2013-02-25 11:21:00,60.0,11.0,-100.00,WNW,295,3.0,12.0,14,0.00,,,0.00,668.000000,,2013-02-25 19:21:00,
2013-02-25 11:31:00,60.0,11.0,-100.00,WNW,295,3.0,12.0,14,0.00,,,0.00,668.000000,,2013-02-25 19:31:00,
2013-02-25 11:41:00,60.0,11.0,-100.00,WNW,295,3.0,12.0,14,0.00,,,0.00,668.000000,,2013-02-25 19:41:00,
2013-02-25 12:11:00,63.0,15.0,-100.00,West,271,9.0,17.0,15,0.00,,,0.00,748.000000,,2013-02-25 20:11:00,
2013-02-25 12:21:00,63.0,15.0,-100.00,West,271,9.0,17.0,15,0.00,,,0.00,748.000000,,2013-02-25 20:21:00,
2013-02-25 12:31:00,63.0,15.0,-100.00,West,271,9.0,17.0,15,0.00,,,0.00,748.000000,,2013-02-25 20:31:00,
2013-02-25 12:41:00,63.0,15.0,-100.00,West,271,9.0,17.0,15,0.00,,,0.00,748.000000,,2013-02-25 20:41:00,
2013-02-25 13:11:00,62.0,17.0,-100.00,WSW,257,13.0,24.0,17,0.00,,,0.00,767.000000,,2013-02-25 21:11:00,
2013-02-25 13:21:00,62.0,17.0,-100.00,WSW,257,13.0,24.0,17,0.00,,,0.00,767.000000,,2013-02-25 21:21:00,
2013-02-25 13:31:00,62.0,17.0,-100.00,WSW,257,13.0,24.0,17,0.00,,,0.00,767.000000,,2013-02-25 21:31:00,
2013-02-25 13:41:00,62.0,17.0,-100.00,WSW,257,13.0,24.0,17,0.00,,,0.00,767.000000,,2013-02-25 21:41:00,
2013-02-25 14:11:00,63.0,19.0,-100.00,West,275,13.0,21.0,18,0.00,,,0.00,721.000000,,2013-02-25 22:11:00,
2013-02-25 14:21:00,63.0,19.0,-100.00,West,275,13.0,21.0,18,0.00,,,0.00,721.000000,,2013-02-25 22:21:00,
2013-02-25 14:31:00,63.0,19.0,-100.00,West,275,13.0,21.0,18,0.00,,,0.00,721.000000,,2013-02-25 22:31:00,
2013-02-25 14:41:00,63.0,19.0,-100.00,West,275,13.0,21.0,18,0.00,,,0.00,721.000000,,2013-02-25 22:41:00,
2013-02-25 15:11:00,60.0,21.0,-100.00,WSW,256,17.0,24.0,22,0.00,,,0.00,617.000000,,2013-02-25 23:11:00,
2013-02-25 15:22:00,60.0,21.0,-100.00,WSW,256,17.0,24.0,22,0.00,,,0.00,617.000000,,2013-02-25 23:22:00,
2013-02-25 15:31:00,60.0,21.0,-100.00,WSW,256,17.0,24.0,22,0.00,,,0.00,617.000000,,2013-02-25 23:31:00,
2013-02-25 15:41:00,60.0,21.0,-100.00,WSW,256,17.0,24.0,22,0.00,,,0.00,617.000000,,2013-02-25 23:41:00,
2013-02-25 16:11:00,60.0,25.0,-100.00,WSW,255,13.0,22.0,26,0.00,,,0.00,471.000000,,2013-02-26 00:11:00,
2013-02-25 16:21:00,60.0,25.0,-100.00,WSW,255,13.0,22.0,26,0.00,,,0.00,471.000000,,2013-02-26 00:21:00,
2013-02-25 16:32:00,60.0,25.0,-100.00,WSW,255,13.0,22.0,26,0.00,,,0.00,471.000000,,2013-02-26 00:32:00,
2013-02-25 16:41:00,60.0,25.0,-100.00,WSW,255,13.0,22.0,26,0.00,,,0.00,471.000000,,2013-02-26 00:41:00,
2013-02-25 17:11:00,56.0,26.0,-100.00,WSW,247,10.0,19.0,31,0.00,,,-99.99,276.000000,,2013-02-26 01:11:00,
2013-02-25 17:21:00,56.0,26.0,-100.00,WSW,247,10.0,19.0,31,0.00,,,-99.99,276.000000,,2013-02-26 01:21:00,
2013-02-25 17:31:00,56.0,26.0,-100.00,WSW,247,10.0,19.0,31,0.00,,,-99.99,276.000000,,2013-02-26 01:31:00,
2013-02-25 17:41:00,56.0,26.0,-100.00,WSW,247,10.0,19.0,31,0.00,,,-99.99,276.000000,,2013-02-26 01:41:00,
2013-02-25 18:11:00,53.0,27.0,-100.00,SW,227,8.0,14.0,37,0.00,,,0.00,75.000000,,2013-02-26 02:11:00,
2013-02-25 18:21:00,53.0,27.0,-100.00,SW,227,8.0,14.0,37,0.00,,,0.00,75.000000,,2013-02-26 02:21:00,
2013-02-25 18:32:00,53.0,27.0,-100.00,SW,227,8.0,14.0,37,0.00,,,0.00,75.000000,,2013-02-26 02:32:00,
2013-02-25 18:41:00,53.0,27.0,-100.00,SW,227,8.0,14.0,37,0.00,,,0.00,75.000000,,2013-02-26 02:41:00,
2013-02-25 19:11:00,51.0,29.0,-100.00,WSW,238,4.0,10.0,42,0.00,,,0.00,1.000000,,2013-02-26 03:11:00,
2013-02-25 19:21:00,51.0,29.0,-100.00,WSW,238,4.0,10.0,42,0.00,,,0.00,1.000000,,2013-02-26 03:21:00,
2013-02-25 19:31:00,51.0,29.0,-100.00,WSW,238,4.0,10.0,42,0.00,,,0.00,1.000000,,2013-02-26 03:31:00,
2013-02-25 19:41:00,51.0,29.0,-100.00,WSW,238,4.0,10.0,42,0.00,,,0.00,1.000000,,2013-02-26 03:41:00,
2013-02-25 20:11:00,51.0,26.0,-100.00,West,268,2.0,5.0,38,0.00,,,0.00,0.000000,,2013-02-26 04:11:00,
2013-02-25 20:21:00,51.0,26.0,-100.00,West,268,2.0,5.0,38,0.00,,,0.00,0.000000,,2013-02-26 04:21:00,
2013-02-25 20:31:00,51.0,26.0,-100.00,West,268,2.0,5.0,38,0.00,,,0.00,0.000000,,2013-02-26 04:31:00,
2013-02-25 20:42:00,51.0,26.0,-100.00,West,268,2.0,5.0,38,0.00,,,0.00,0.000000,,2013-02-26 04:42:00,
2013-02-25 21:11:00,52.0,28.0,-100.00,ESE,112,2.0,8.0,39,0.00,,,0.00,0.000000,,2013-02-26 05:11:00,
2013-02-25 21:21:00,52.0,28.0,-100.00,ESE,112,2.0,8.0,39,0.00,,,0.00,0.000000,,2013-02-26 05:21:00,
2013-02-25 21:31:00,52.0,28.0,-100.00,ESE,112,2.0,8.0,39,0.00,,,0.00,0.000000,,2013-02-26 05:31:00,
2013-02-25 22:11:00,52.0,25.0,-100.00,ESE,117,3.0,7.0,34,-99.99,,,0.00,0.000000,,2013-02-26 06:11:00,
2013-02-25 22:21:00,52.0,25.0,-100.00,ESE,117,3.0,7.0,34,-99.99,,,0.00,0.000000,,2013-02-26 06:21:00,
2013-02-25 23:11:00,51.0,26.0,-100.00,ESE,108,11.0,12.0,38,-99.99,,,0.00,0.000000,,2013-02-26 07:11:00,
2013-02-25 23:22:00,51.0,26.0,-100.00,ESE,108,11.0,12.0,38,-99.99,,,0.00,0.000000,,2013-02-26 07:22:00,